sensor_id;sensor_type;location;lat;lon;timestamp;P1;durP1;ratioP1;P2;durP2;ratioP2
40959;SDS011;27842;52.272;8.052;2023-12-20T00:02:15;12.33;;;3.47;;
40959;SDS011;27842;52.272;8.052;2023-12-20T00:04:41;12.70;;;3.03;;
40959;SDS011;27842;52.272;8.052;2023-12-20T00:07:07;13.07;;;3.33;;
40959;SDS011;27842;52.272;8.052;2023-12-20T00:09:32;12.97;;;3.47;;
40959;SDS011;27842;52.272;8.052;2023-12-20T00:11:58;12.33;;;3.00;;
40959;SDS011;27842;52.272;8.052;2023-12-20T00:14:24;16.93;;;5.70;;
40959;SDS011;27842;52.272;8.052;2023-12-20T00:16:49;24.07;;;9.43;;
40959;SDS011;27842;52.272;8.052;2023-12-20T00:19:15;23.63;;;9.30;;
40959;SDS011;27842;52.272;8.052;2023-12-20T00:21:40;20.87;;;6.63;;
40959;SDS011;27842;52.272;8.052;2023-12-20T00:24:06;18.40;;;5.40;;
40959;SDS011;27842;52.272;8.052;2023-12-20T00:26:31;14.83;;;4.70;;
40959;SDS011;27842;52.272;8.052;2023-12-20T00:28:57;16.47;;;4.40;;
40959;SDS011;27842;52.272;8.052;2023-12-20T00:31:22;20.77;;;5.60;;
40959;SDS011;27842;52.272;8.052;2023-12-20T00:33:48;20.70;;;5.93;;
40959;SDS011;27842;52.272;8.052;2023-12-20T00:36:14;18.10;;;6.63;;
40959;SDS011;27842;52.272;8.052;2023-12-20T00:38:39;23.63;;;7.00;;
40959;SDS011;27842;52.272;8.052;2023-12-20T00:41:05;17.80;;;6.43;;
40959;SDS011;27842;52.272;8.052;2023-12-20T00:43:30;15.47;;;4.43;;
40959;SDS011;27842;52.272;8.052;2023-12-20T00:45:56;14.23;;;3.70;;
40959;SDS011;27842;52.272;8.052;2023-12-20T00:48:22;17.77;;;4.20;;
40959;SDS011;27842;52.272;8.052;2023-12-20T00:50:47;17.03;;;3.87;;
40959;SDS011;27842;52.272;8.052;2023-12-20T00:53:13;22.10;;;5.70;;
40959;SDS011;27842;52.272;8.052;2023-12-20T00:55:39;25.87;;;7.67;;
40959;SDS011;27842;52.272;8.052;2023-12-20T00:58:05;23.70;;;6.33;;
40959;SDS011;27842;52.272;8.052;2023-12-20T01:00:31;15.87;;;4.07;;
40959;SDS011;27842;52.272;8.052;2023-12-20T01:02:56;14.13;;;3.30;;
40959;SDS011;27842;52.272;8.052;2023-12-20T01:05:22;11.60;;;3.47;;
40959;SDS011;27842;52.272;8.052;2023-12-20T01:07:48;18.13;;;3.80;;
40959;SDS011;27842;52.272;8.052;2023-12-20T01:10:14;13.40;;;3.40;;
40959;SDS011;27842;52.272;8.052;2023-12-20T01:12:40;13.43;;;3.50;;
40959;SDS011;27842;52.272;8.052;2023-12-20T01:15:05;17.53;;;3.80;;
40959;SDS011;27842;52.272;8.052;2023-12-20T01:17:31;12.53;;;3.23;;
40959;SDS011;27842;52.272;8.052;2023-12-20T01:19:57;17.70;;;4.00;;
40959;SDS011;27842;52.272;8.052;2023-12-20T01:22:23;13.00;;;3.70;;
40959;SDS011;27842;52.272;8.052;2023-12-20T01:24:48;11.90;;;3.27;;
40959;SDS011;27842;52.272;8.052;2023-12-20T01:27:14;11.80;;;3.13;;
40959;SDS011;27842;52.272;8.052;2023-12-20T01:29:40;14.63;;;3.97;;
40959;SDS011;27842;52.272;8.052;2023-12-20T01:32:06;15.37;;;4.00;;
40959;SDS011;27842;52.272;8.052;2023-12-20T01:34:31;14.07;;;3.37;;
40959;SDS011;27842;52.272;8.052;2023-12-20T01:36:57;12.10;;;3.20;;
40959;SDS011;27842;52.272;8.052;2023-12-20T01:39:22;15.17;;;3.13;;
40959;SDS011;27842;52.272;8.052;2023-12-20T01:41:48;13.70;;;3.10;;
40959;SDS011;27842;52.272;8.052;2023-12-20T01:44:14;15.53;;;3.43;;
40959;SDS011;27842;52.272;8.052;2023-12-20T01:46:39;10.87;;;3.00;;
40959;SDS011;27842;52.272;8.052;2023-12-20T01:49:06;14.83;;;3.20;;
40959;SDS011;27842;52.272;8.052;2023-12-20T01:51:31;13.37;;;3.07;;
40959;SDS011;27842;52.272;8.052;2023-12-20T01:53:58;16.90;;;3.73;;
40959;SDS011;27842;52.272;8.052;2023-12-20T01:56:25;13.50;;;3.10;;
40959;SDS011;27842;52.272;8.052;2023-12-20T01:58:52;12.60;;;3.30;;
40959;SDS011;27842;52.272;8.052;2023-12-20T02:01:18;19.93;;;2.93;;
40959;SDS011;27842;52.272;8.052;2023-12-20T02:03:44;15.87;;;3.00;;
40959;SDS011;27842;52.272;8.052;2023-12-20T02:06:10;16.20;;;3.73;;
40959;SDS011;27842;52.272;8.052;2023-12-20T02:08:36;21.70;;;4.70;;
40959;SDS011;27842;52.272;8.052;2023-12-20T02:11:02;18.30;;;5.33;;
40959;SDS011;27842;52.272;8.052;2023-12-20T02:13:27;16.90;;;2.93;;
40959;SDS011;27842;52.272;8.052;2023-12-20T02:15:54;14.97;;;3.50;;
40959;SDS011;27842;52.272;8.052;2023-12-20T02:18:19;11.67;;;2.93;;
40959;SDS011;27842;52.272;8.052;2023-12-20T02:20:45;15.13;;;3.17;;
40959;SDS011;27842;52.272;8.052;2023-12-20T02:23:11;12.07;;;2.50;;
40959;SDS011;27842;52.272;8.052;2023-12-20T02:25:36;12.33;;;3.70;;
40959;SDS011;27842;52.272;8.052;2023-12-20T02:28:02;11.40;;;2.53;;
40959;SDS011;27842;52.272;8.052;2023-12-20T02:30:29;12.13;;;2.90;;
40959;SDS011;27842;52.272;8.052;2023-12-20T02:32:54;17.00;;;3.10;;
40959;SDS011;27842;52.272;8.052;2023-12-20T02:35:20;16.03;;;2.90;;
40959;SDS011;27842;52.272;8.052;2023-12-20T02:37:46;16.40;;;3.17;;
40959;SDS011;27842;52.272;8.052;2023-12-20T02:40:11;14.93;;;3.00;;
40959;SDS011;27842;52.272;8.052;2023-12-20T02:42:37;15.53;;;3.03;;
40959;SDS011;27842;52.272;8.052;2023-12-20T02:45:03;15.37;;;2.93;;
40959;SDS011;27842;52.272;8.052;2023-12-20T02:47:29;12.70;;;3.30;;
40959;SDS011;27842;52.272;8.052;2023-12-20T02:49:55;16.70;;;3.67;;
40959;SDS011;27842;52.272;8.052;2023-12-20T02:52:21;18.40;;;3.57;;
40959;SDS011;27842;52.272;8.052;2023-12-20T02:54:50;20.02;;;4.07;;
40959;SDS011;27842;52.272;8.052;2023-12-20T02:57:15;16.87;;;4.07;;
40959;SDS011;27842;52.272;8.052;2023-12-20T02:59:41;18.73;;;3.70;;
40959;SDS011;27842;52.272;8.052;2023-12-20T03:02:06;18.73;;;4.57;;
40959;SDS011;27842;52.272;8.052;2023-12-20T03:04:32;19.57;;;3.83;;
40959;SDS011;27842;52.272;8.052;2023-12-20T03:06:57;19.40;;;4.10;;
40959;SDS011;27842;52.272;8.052;2023-12-20T03:09:23;16.70;;;4.40;;
40959;SDS011;27842;52.272;8.052;2023-12-20T03:11:48;24.50;;;4.13;;
40959;SDS011;27842;52.272;8.052;2023-12-20T03:14:14;14.80;;;3.57;;
40959;SDS011;27842;52.272;8.052;2023-12-20T03:16:39;18.87;;;4.10;;
40959;SDS011;27842;52.272;8.052;2023-12-20T03:19:05;14.57;;;3.73;;
40959;SDS011;27842;52.272;8.052;2023-12-20T03:21:31;17.10;;;4.10;;
40959;SDS011;27842;52.272;8.052;2023-12-20T03:23:56;14.23;;;3.93;;
40959;SDS011;27842;52.272;8.052;2023-12-20T03:26:22;17.50;;;3.80;;
40959;SDS011;27842;52.272;8.052;2023-12-20T03:28:48;17.93;;;4.17;;
40959;SDS011;27842;52.272;8.052;2023-12-20T03:31:14;18.97;;;3.80;;
40959;SDS011;27842;52.272;8.052;2023-12-20T03:33:39;20.40;;;4.93;;
40959;SDS011;27842;52.272;8.052;2023-12-20T03:36:05;17.70;;;4.43;;
40959;SDS011;27842;52.272;8.052;2023-12-20T03:38:31;18.57;;;4.17;;
40959;SDS011;27842;52.272;8.052;2023-12-20T03:40:56;20.30;;;4.20;;
40959;SDS011;27842;52.272;8.052;2023-12-20T03:43:22;18.57;;;4.90;;
40959;SDS011;27842;52.272;8.052;2023-12-20T03:45:47;20.73;;;4.10;;
40959;SDS011;27842;52.272;8.052;2023-12-20T03:48:13;18.97;;;4.17;;
40959;SDS011;27842;52.272;8.052;2023-12-20T03:50:39;16.10;;;3.67;;
40959;SDS011;27842;52.272;8.052;2023-12-20T03:53:04;18.90;;;3.70;;
40959;SDS011;27842;52.272;8.052;2023-12-20T03:55:30;13.20;;;3.57;;
40959;SDS011;27842;52.272;8.052;2023-12-20T03:57:55;18.40;;;5.23;;
40959;SDS011;27842;52.272;8.052;2023-12-20T04:00:21;15.70;;;3.77;;
40959;SDS011;27842;52.272;8.052;2023-12-20T04:02:46;20.57;;;4.20;;
40959;SDS011;27842;52.272;8.052;2023-12-20T04:05:12;17.43;;;3.87;;
40959;SDS011;27842;52.272;8.052;2023-12-20T04:07:38;18.90;;;4.17;;
40959;SDS011;27842;52.272;8.052;2023-12-20T04:10:04;19.03;;;5.03;;
40959;SDS011;27842;52.272;8.052;2023-12-20T04:12:30;18.47;;;4.40;;
40959;SDS011;27842;52.272;8.052;2023-12-20T04:14:57;19.50;;;3.93;;
40959;SDS011;27842;52.272;8.052;2023-12-20T04:17:22;19.33;;;4.27;;
40959;SDS011;27842;52.272;8.052;2023-12-20T04:19:49;21.53;;;3.70;;
40959;SDS011;27842;52.272;8.052;2023-12-20T04:22:15;20.43;;;4.03;;
40959;SDS011;27842;52.272;8.052;2023-12-20T04:24:40;20.67;;;3.87;;
40959;SDS011;27842;52.272;8.052;2023-12-20T04:27:09;23.35;;;5.03;;
40959;SDS011;27842;52.272;8.052;2023-12-20T04:29:34;21.87;;;4.73;;
40959;SDS011;27842;52.272;8.052;2023-12-20T04:32:00;19.97;;;3.63;;
40959;SDS011;27842;52.272;8.052;2023-12-20T04:34:26;18.43;;;3.33;;
40959;SDS011;27842;52.272;8.052;2023-12-20T04:36:51;19.43;;;3.37;;
40959;SDS011;27842;52.272;8.052;2023-12-20T04:39:17;17.80;;;3.57;;
40959;SDS011;27842;52.272;8.052;2023-12-20T04:41:43;16.97;;;3.87;;
40959;SDS011;27842;52.272;8.052;2023-12-20T04:44:09;15.63;;;3.23;;
40959;SDS011;27842;52.272;8.052;2023-12-20T04:46:34;19.53;;;3.37;;
40959;SDS011;27842;52.272;8.052;2023-12-20T04:49:00;22.43;;;4.00;;
40959;SDS011;27842;52.272;8.052;2023-12-20T04:51:26;16.57;;;3.33;;
40959;SDS011;27842;52.272;8.052;2023-12-20T04:53:52;18.83;;;3.33;;
40959;SDS011;27842;52.272;8.052;2023-12-20T04:56:17;16.87;;;3.30;;
40959;SDS011;27842;52.272;8.052;2023-12-20T04:58:43;16.67;;;3.30;;
40959;SDS011;27842;52.272;8.052;2023-12-20T05:01:11;20.00;;;3.17;;
40959;SDS011;27842;52.272;8.052;2023-12-20T05:03:38;19.90;;;4.27;;
40959;SDS011;27842;52.272;8.052;2023-12-20T05:06:03;21.53;;;2.97;;
40959;SDS011;27842;52.272;8.052;2023-12-20T05:08:29;17.97;;;3.33;;
40959;SDS011;27842;52.272;8.052;2023-12-20T05:10:54;15.47;;;3.17;;
40959;SDS011;27842;52.272;8.052;2023-12-20T05:13:20;24.07;;;3.40;;
40959;SDS011;27842;52.272;8.052;2023-12-20T05:15:46;18.13;;;3.77;;
40959;SDS011;27842;52.272;8.052;2023-12-20T05:18:12;25.43;;;4.63;;
40959;SDS011;27842;52.272;8.052;2023-12-20T05:20:38;20.30;;;4.07;;
40959;SDS011;27842;52.272;8.052;2023-12-20T05:23:03;16.47;;;3.57;;
40959;SDS011;27842;52.272;8.052;2023-12-20T05:25:29;23.03;;;3.90;;
40959;SDS011;27842;52.272;8.052;2023-12-20T05:27:54;18.80;;;3.53;;
40959;SDS011;27842;52.272;8.052;2023-12-20T05:30:21;17.77;;;3.77;;
40959;SDS011;27842;52.272;8.052;2023-12-20T05:32:47;20.87;;;3.50;;
40959;SDS011;27842;52.272;8.052;2023-12-20T05:35:12;18.97;;;3.50;;
40959;SDS011;27842;52.272;8.052;2023-12-20T05:37:38;15.70;;;3.57;;
40959;SDS011;27842;52.272;8.052;2023-12-20T05:40:04;20.97;;;4.47;;
40959;SDS011;27842;52.272;8.052;2023-12-20T05:42:30;23.57;;;3.83;;
40959;SDS011;27842;52.272;8.052;2023-12-20T05:44:56;28.17;;;4.40;;
40959;SDS011;27842;52.272;8.052;2023-12-20T05:47:21;17.37;;;4.27;;
40959;SDS011;27842;52.272;8.052;2023-12-20T05:49:47;17.17;;;3.80;;
40959;SDS011;27842;52.272;8.052;2023-12-20T05:52:13;23.27;;;4.37;;
40959;SDS011;27842;52.272;8.052;2023-12-20T05:54:38;21.70;;;4.67;;
40959;SDS011;27842;52.272;8.052;2023-12-20T05:57:04;18.50;;;3.40;;
40959;SDS011;27842;52.272;8.052;2023-12-20T06:05:55;23.17;;;3.57;;
40959;SDS011;27842;52.272;8.052;2023-12-20T06:08:21;20.83;;;3.83;;
40959;SDS011;27842;52.272;8.052;2023-12-20T06:10:46;21.87;;;4.63;;
40959;SDS011;27842;52.272;8.052;2023-12-20T06:13:12;19.27;;;4.43;;
40959;SDS011;27842;52.272;8.052;2023-12-20T06:15:38;22.80;;;3.80;;
40959;SDS011;27842;52.272;8.052;2023-12-20T06:24:58;21.20;;;4.43;;
40959;SDS011;27842;52.272;8.052;2023-12-20T06:27:23;19.80;;;4.57;;
40959;SDS011;27842;52.272;8.052;2023-12-20T06:29:50;20.07;;;3.97;;
40959;SDS011;27842;52.272;8.052;2023-12-20T06:42:25;23.93;;;4.70;;
40959;SDS011;27842;52.272;8.052;2023-12-20T06:44:51;19.93;;;4.80;;
40959;SDS011;27842;52.272;8.052;2023-12-20T06:47:16;24.23;;;5.37;;
40959;SDS011;27842;52.272;8.052;2023-12-20T06:53:06;20.37;;;4.40;;
40959;SDS011;27842;52.272;8.052;2023-12-20T06:55:32;25.20;;;4.60;;
40959;SDS011;27842;52.272;8.052;2023-12-20T06:58:04;19.17;;;3.67;;
40959;SDS011;27842;52.272;8.052;2023-12-20T07:00:30;24.20;;;4.97;;
40959;SDS011;27842;52.272;8.052;2023-12-20T07:03:14;21.77;;;4.23;;
40959;SDS011;27842;52.272;8.052;2023-12-20T07:08:27;23.23;;;4.03;;
40959;SDS011;27842;52.272;8.052;2023-12-20T07:10:53;21.47;;;4.43;;
40959;SDS011;27842;52.272;8.052;2023-12-20T07:13:21;25.23;;;4.93;;
40959;SDS011;27842;52.272;8.052;2023-12-20T07:15:56;21.47;;;4.27;;
40959;SDS011;27842;52.272;8.052;2023-12-20T07:21:52;24.40;;;4.43;;
40959;SDS011;27842;52.272;8.052;2023-12-20T07:24:18;22.80;;;4.30;;
40959;SDS011;27842;52.272;8.052;2023-12-20T07:26:55;24.57;;;5.00;;
40959;SDS011;27842;52.272;8.052;2023-12-20T07:29:22;22.53;;;4.17;;
40959;SDS011;27842;52.272;8.052;2023-12-20T07:31:54;20.50;;;3.90;;
40959;SDS011;27842;52.272;8.052;2023-12-20T07:34:20;20.10;;;4.80;;
40959;SDS011;27842;52.272;8.052;2023-12-20T07:36:46;21.07;;;3.60;;
40959;SDS011;27842;52.272;8.052;2023-12-20T07:39:12;19.77;;;4.27;;
40959;SDS011;27842;52.272;8.052;2023-12-20T07:41:38;19.53;;;3.43;;
40959;SDS011;27842;52.272;8.052;2023-12-20T07:44:04;20.00;;;4.00;;
40959;SDS011;27842;52.272;8.052;2023-12-20T07:46:30;20.70;;;3.70;;
40959;SDS011;27842;52.272;8.052;2023-12-20T07:48:55;24.50;;;3.63;;
40959;SDS011;27842;52.272;8.052;2023-12-20T07:51:21;20.87;;;3.70;;
40959;SDS011;27842;52.272;8.052;2023-12-20T07:53:46;20.80;;;4.37;;
40959;SDS011;27842;52.272;8.052;2023-12-20T07:56:15;24.57;;;3.57;;
40959;SDS011;27842;52.272;8.052;2023-12-20T07:58:42;21.00;;;3.50;;
40959;SDS011;27842;52.272;8.052;2023-12-20T08:01:08;17.30;;;3.20;;
40959;SDS011;27842;52.272;8.052;2023-12-20T08:03:33;16.50;;;3.30;;
40959;SDS011;27842;52.272;8.052;2023-12-20T08:05:59;16.40;;;2.90;;
40959;SDS011;27842;52.272;8.052;2023-12-20T08:08:26;18.67;;;3.23;;
40959;SDS011;27842;52.272;8.052;2023-12-20T08:10:52;22.43;;;3.67;;
40959;SDS011;27842;52.272;8.052;2023-12-20T08:13:23;22.00;;;4.57;;
40959;SDS011;27842;52.272;8.052;2023-12-20T08:15:51;23.57;;;3.80;;
40959;SDS011;27842;52.272;8.052;2023-12-20T08:18:21;21.57;;;3.63;;
40959;SDS011;27842;52.272;8.052;2023-12-20T08:20:46;16.50;;;3.40;;
40959;SDS011;27842;52.272;8.052;2023-12-20T08:23:14;22.73;;;4.03;;
40959;SDS011;27842;52.272;8.052;2023-12-20T08:26:06;25.20;;;4.10;;
40959;SDS011;27842;52.272;8.052;2023-12-20T08:28:32;23.67;;;4.47;;
40959;SDS011;27842;52.272;8.052;2023-12-20T08:30:58;20.37;;;3.93;;
40959;SDS011;27842;52.272;8.052;2023-12-20T08:33:25;18.63;;;3.30;;
40959;SDS011;27842;52.272;8.052;2023-12-20T08:35:51;20.47;;;4.07;;
40959;SDS011;27842;52.272;8.052;2023-12-20T08:38:26;18.20;;;3.73;;
40959;SDS011;27842;52.272;8.052;2023-12-20T08:40:51;19.70;;;3.27;;
40959;SDS011;27842;52.272;8.052;2023-12-20T08:43:17;19.17;;;3.90;;
40959;SDS011;27842;52.272;8.052;2023-12-20T08:45:43;21.03;;;3.63;;
40959;SDS011;27842;52.272;8.052;2023-12-20T08:48:09;21.70;;;3.60;;
40959;SDS011;27842;52.272;8.052;2023-12-20T08:50:35;21.00;;;3.60;;
40959;SDS011;27842;52.272;8.052;2023-12-20T08:53:01;19.77;;;3.33;;
40959;SDS011;27842;52.272;8.052;2023-12-20T09:05:50;22.00;;;3.47;;
40959;SDS011;27842;52.272;8.052;2023-12-20T09:08:16;18.43;;;3.77;;
40959;SDS011;27842;52.272;8.052;2023-12-20T09:10:41;17.03;;;3.50;;
40959;SDS011;27842;52.272;8.052;2023-12-20T09:13:07;21.33;;;4.03;;
40959;SDS011;27842;52.272;8.052;2023-12-20T09:15:32;20.77;;;3.60;;
40959;SDS011;27842;52.272;8.052;2023-12-20T09:17:59;20.80;;;4.20;;
40959;SDS011;27842;52.272;8.052;2023-12-20T09:20:24;22.77;;;4.33;;
40959;SDS011;27842;52.272;8.052;2023-12-20T09:22:50;21.10;;;3.60;;
40959;SDS011;27842;52.272;8.052;2023-12-20T09:25:16;21.53;;;4.00;;
40959;SDS011;27842;52.272;8.052;2023-12-20T09:27:42;20.67;;;3.67;;
40959;SDS011;27842;52.272;8.052;2023-12-20T09:30:08;22.07;;;4.40;;
40959;SDS011;27842;52.272;8.052;2023-12-20T09:32:35;24.60;;;4.40;;
40959;SDS011;27842;52.272;8.052;2023-12-20T09:35:01;24.20;;;3.90;;
40959;SDS011;27842;52.272;8.052;2023-12-20T09:40:15;22.93;;;4.30;;
40959;SDS011;27842;52.272;8.052;2023-12-20T09:45:22;22.63;;;5.35;;
40959;SDS011;27842;52.272;8.052;2023-12-20T09:47:54;23.80;;;4.53;;
40959;SDS011;27842;52.272;8.052;2023-12-20T09:50:20;23.60;;;4.83;;
40959;SDS011;27842;52.272;8.052;2023-12-20T09:52:50;20.80;;;4.63;;
40959;SDS011;27842;52.272;8.052;2023-12-20T09:55:17;16.73;;;4.07;;
40959;SDS011;27842;52.272;8.052;2023-12-20T09:57:44;23.33;;;4.80;;
40959;SDS011;27842;52.272;8.052;2023-12-20T10:00:10;22.00;;;4.53;;
40959;SDS011;27842;52.272;8.052;2023-12-20T10:02:48;18.27;;;4.10;;
40959;SDS011;27842;52.272;8.052;2023-12-20T10:09:05;16.00;;;3.80;;
40959;SDS011;27842;52.272;8.052;2023-12-20T10:12:28;21.20;;;4.07;;
40959;SDS011;27842;52.272;8.052;2023-12-20T10:14:54;22.93;;;4.70;;
40959;SDS011;27842;52.272;8.052;2023-12-20T10:17:19;19.70;;;4.20;;
40959;SDS011;27842;52.272;8.052;2023-12-20T10:19:46;22.70;;;4.20;;
40959;SDS011;27842;52.272;8.052;2023-12-20T10:22:12;18.73;;;3.90;;
40959;SDS011;27842;52.272;8.052;2023-12-20T10:24:38;20.20;;;4.47;;
40959;SDS011;27842;52.272;8.052;2023-12-20T10:27:06;19.83;;;3.93;;
40959;SDS011;27842;52.272;8.052;2023-12-20T10:29:38;20.03;;;3.77;;
40959;SDS011;27842;52.272;8.052;2023-12-20T11:05:00;17.90;;;3.17;;
40959;SDS011;27842;52.272;8.052;2023-12-20T11:07:35;17.73;;;3.47;;
40959;SDS011;27842;52.272;8.052;2023-12-20T11:10:20;19.42;;;3.17;;
40959;SDS011;27842;52.272;8.052;2023-12-20T11:15:49;17.30;;;4.20;;
40959;SDS011;27842;52.272;8.052;2023-12-20T11:21:53;14.68;;;3.30;;
40959;SDS011;27842;52.272;8.052;2023-12-20T11:24:44;18.25;;;3.88;;
40959;SDS011;27842;52.272;8.052;2023-12-20T11:27:12;15.35;;;3.67;;
40959;SDS011;27842;52.272;8.052;2023-12-20T11:29:40;18.00;;;4.17;;
40959;SDS011;27842;52.272;8.052;2023-12-20T11:32:28;16.93;;;3.50;;
40959;SDS011;27842;52.272;8.052;2023-12-20T11:35:01;17.73;;;4.03;;
40959;SDS011;27842;52.272;8.052;2023-12-20T11:37:45;14.83;;;3.37;;
40959;SDS011;27842;52.272;8.052;2023-12-20T11:42:44;13.10;;;2.93;;
40959;SDS011;27842;52.272;8.052;2023-12-20T11:50:59;17.33;;;3.80;;
40959;SDS011;27842;52.272;8.052;2023-12-20T11:53:25;16.77;;;3.83;;
40959;SDS011;27842;52.272;8.052;2023-12-20T11:55:51;22.07;;;4.37;;
40959;SDS011;27842;52.272;8.052;2023-12-20T11:58:17;16.43;;;3.10;;
40959;SDS011;27842;52.272;8.052;2023-12-20T12:00:43;17.77;;;4.10;;
40959;SDS011;27842;52.272;8.052;2023-12-20T12:03:09;17.10;;;4.47;;
40959;SDS011;27842;52.272;8.052;2023-12-20T12:05:35;15.90;;;4.13;;
40959;SDS011;27842;52.272;8.052;2023-12-20T12:08:01;12.30;;;2.33;;
40959;SDS011;27842;52.272;8.052;2023-12-20T12:10:29;10.77;;;2.78;;
40959;SDS011;27842;52.272;8.052;2023-12-20T12:12:55;10.40;;;1.87;;
40959;SDS011;27842;52.272;8.052;2023-12-20T12:15:21;8.80;;;2.07;;
40959;SDS011;27842;52.272;8.052;2023-12-20T12:17:54;9.10;;;1.50;;
40959;SDS011;27842;52.272;8.052;2023-12-20T12:20:24;8.70;;;1.40;;
40959;SDS011;27842;52.272;8.052;2023-12-20T12:25:31;6.13;;;1.30;;
40959;SDS011;27842;52.272;8.052;2023-12-20T12:27:58;8.33;;;1.60;;
40959;SDS011;27842;52.272;8.052;2023-12-20T12:55:12;11.13;;;2.40;;
40959;SDS011;27842;52.272;8.052;2023-12-20T12:57:38;9.20;;;2.23;;
40959;SDS011;27842;52.272;8.052;2023-12-20T14:30:45;14.10;;;2.57;;
40959;SDS011;27842;52.272;8.052;2023-12-20T14:33:16;12.27;;;2.30;;
40959;SDS011;27842;52.272;8.052;2023-12-20T14:35:44;12.43;;;2.60;;
40959;SDS011;27842;52.272;8.052;2023-12-20T14:38:10;14.83;;;2.67;;
40959;SDS011;27842;52.272;8.052;2023-12-20T14:40:38;10.53;;;2.33;;
40959;SDS011;27842;52.272;8.052;2023-12-20T14:52:52;13.03;;;3.00;;
40959;SDS011;27842;52.272;8.052;2023-12-20T14:55:43;14.17;;;3.63;;
40959;SDS011;27842;52.272;8.052;2023-12-20T14:58:09;15.23;;;2.63;;
40959;SDS011;27842;52.272;8.052;2023-12-20T15:00:35;10.67;;;2.50;;
40959;SDS011;27842;52.272;8.052;2023-12-20T15:03:01;11.43;;;2.27;;
40959;SDS011;27842;52.272;8.052;2023-12-20T15:05:29;14.00;;;2.93;;
40959;SDS011;27842;52.272;8.052;2023-12-20T15:07:54;19.37;;;7.03;;
40959;SDS011;27842;52.272;8.052;2023-12-20T15:10:21;21.13;;;7.77;;
40959;SDS011;27842;52.272;8.052;2023-12-20T15:13:11;19.63;;;5.40;;
40959;SDS011;27842;52.272;8.052;2023-12-20T15:15:37;15.30;;;4.80;;
40959;SDS011;27842;52.272;8.052;2023-12-20T15:18:03;11.57;;;3.33;;
40959;SDS011;27842;52.272;8.052;2023-12-20T15:20:30;12.10;;;3.37;;
40959;SDS011;27842;52.272;8.052;2023-12-20T15:25:29;12.43;;;2.60;;
40959;SDS011;27842;52.272;8.052;2023-12-20T15:27:55;14.30;;;3.50;;
40959;SDS011;27842;52.272;8.052;2023-12-20T15:30:21;15.97;;;4.67;;
40959;SDS011;27842;52.272;8.052;2023-12-20T15:32:49;15.03;;;4.10;;
40959;SDS011;27842;52.272;8.052;2023-12-20T15:37:43;13.07;;;2.57;;
40959;SDS011;27842;52.272;8.052;2023-12-20T15:40:12;12.17;;;2.80;;
40959;SDS011;27842;52.272;8.052;2023-12-20T15:42:41;12.27;;;2.83;;
40959;SDS011;27842;52.272;8.052;2023-12-20T15:45:12;13.73;;;2.67;;
40959;SDS011;27842;52.272;8.052;2023-12-20T15:48:45;9.80;;;2.80;;
40959;SDS011;27842;52.272;8.052;2023-12-20T15:51:12;11.90;;;2.70;;
40959;SDS011;27842;52.272;8.052;2023-12-20T15:56:30;14.60;;;2.70;;
40959;SDS011;27842;52.272;8.052;2023-12-20T15:58:59;14.07;;;2.50;;
40959;SDS011;27842;52.272;8.052;2023-12-20T16:01:46;9.83;;;2.17;;
40959;SDS011;27842;52.272;8.052;2023-12-20T16:04:12;12.33;;;2.60;;
40959;SDS011;27842;52.272;8.052;2023-12-20T16:07:04;11.03;;;2.50;;
40959;SDS011;27842;52.272;8.052;2023-12-20T16:10:00;13.87;;;2.77;;
